Time;durP1;ratioP1;P1;durP2;ratioP2;P2;SDS_P1;SDS_P2;PMS_P1;PMS_P2;Temp;Humidity;BMP_temperature;BMP_pressure;BME280_temperature;BME280_humidity;BME280_pressure;Samples;Min_cycle;Max_cycle;Signal;HPM_P1;HPM_P2
2023/04/16 00:02:13;;;;;;;66.65;61.20;;;;;;;7.90;89.87;98008.50;4995872;28;20021;-73
2023/04/16 00:04:39;;;;;;;66.57;61.72;;;;;;;7.90;90.17;98011.16;4995339;28;20112;-73
2023/04/16 00:07:04;;;;;;;68.28;61.33;;;;;;;7.79;90.87;98014.66;5011430;28;20033;-72
2023/04/16 00:09:30;;;;;;;65.85;60.53;;;;;;;7.84;90.93;98020.13;5013169;28;20034;-73
2023/04/16 00:11:55;;;;;;;64.18;58.38;;;;;;;7.88;91.41;98012.44;5012000;28;20437;-74
2023/04/16 00:14:20;;;;;;;64.07;59.60;;;;;;;7.84;90.33;98017.44;5011583;28;20042;-73
2023/04/16 00:16:46;;;;;;;63.22;58.03;;;;;;;7.81;91.52;98012.56;5011903;28;20037;-73
2023/04/16 00:19:11;;;;;;;63.65;58.13;;;;;;;7.82;91.05;98014.19;4995363;28;20038;-73
2023/04/16 00:21:37;;;;;;;63.22;58.20;;;;;;;7.85;91.26;98013.72;4995298;28;20156;-73
2023/04/16 00:24:02;;;;;;;64.90;58.78;;;;;;;7.94;90.14;98012.34;5010753;28;20038;-73
2023/04/16 00:26:27;;;;;;;69.72;62.28;;;;;;;7.85;90.72;98008.34;4992378;28;20066;-74
2023/04/16 00:28:53;;;;;;;64.65;59.15;;;;;;;7.75;92.33;98018.81;5010851;28;20038;-75
2023/04/16 00:31:28;;;;;;;65.10;58.67;;;;;;;7.78;91.82;98018.38;5011863;28;20037;-74
2023/04/16 00:33:54;;;;;;;;;;;;;;;7.87;90.83;98016.97;5012507;28;20044;-74
2023/04/16 00:36:22;;;;;;;70.30;61.87;;;;;;;7.81;90.72;98022.47;4995599;28;19910;-74
2023/04/16 00:38:47;;;;;;;60.25;55.28;;;;;;;7.82;91.38;98019.53;4995160;28;20037;-74
2023/04/16 00:41:13;;;;;;;70.65;60.88;;;;;;;7.90;90.90;98005.81;4995281;28;20022;-74
2023/04/16 00:43:38;;;;;;;66.28;60.75;;;;;;;7.87;91.02;98011.63;4994986;28;20046;-72
2023/04/16 00:46:05;;;;;;;67.97;60.67;;;;;;;7.80;91.43;98021.63;5011393;28;20029;-72
2023/04/16 00:48:32;;;;;;;64.70;59.22;;;;;;;7.83;91.42;98010.47;4994958;28;20032;-72
2023/04/16 00:50:59;;;;;;;65.63;60.53;;;;;;;7.86;90.60;98010.00;5011256;28;20178;-72
2023/04/16 00:53:25;;;;;;;64.65;59.33;;;;;;;7.84;90.31;98005.91;4994589;28;20042;-72
2023/04/16 00:55:50;;;;;;;64.15;59.58;;;;;;;7.93;89.86;98013.41;4994734;28;20029;-72
2023/04/16 00:58:16;;;;;;;63.33;58.80;;;;;;;7.91;90.27;98012.00;5011051;28;20196;-72
2023/04/16 01:00:41;;;;;;;69.10;61.50;;;;;;;7.69;91.42;98011.72;5011079;28;20022;-72
2023/04/16 01:03:07;;;;;;;62.38;57.60;;;;;;;7.82;92.25;98016.84;4994295;28;20614;-74
2023/04/16 01:05:35;;;;;;;65.22;59.38;;;;;;;7.82;91.48;98013.38;4978319;28;20045;-74
2023/04/16 01:08:00;;;;;;;63.85;58.95;;;;;;;7.96;90.44;98014.81;4994606;28;20503;-73
2023/04/16 01:10:25;;;;;;;64.15;59.30;;;;;;;7.95;89.97;98008.63;5010955;28;20022;-73
2023/04/16 01:12:51;;;;;;;65.22;59.80;;;;;;;7.95;90.31;98013.16;5010636;28;20128;-72
2023/04/16 01:15:16;;;;;;;64.57;59.63;;;;;;;7.94;90.35;98017.69;4978092;28;20026;-72
2023/04/16 01:17:44;;;;;;;63.85;59.00;;;;;;;7.99;89.67;98011.63;5011918;28;20088;-73
2023/04/16 01:20:10;;;;;;;64.28;58.60;;;;;;;7.95;89.62;98015.84;5010834;28;20037;-72
2023/04/16 01:22:35;;;;;;;73.10;65.07;;;;;;;7.70;92.11;98020.59;5010659;28;20033;-74
2023/04/16 01:25:01;;;;;;;67.03;61.33;;;;;;;7.86;90.49;98019.91;5010440;28;20507;-73
2023/04/16 01:27:26;;;;;;;70.15;63.28;;;;;;;7.90;90.89;98019.22;5011855;28;20037;-73
2023/04/16 01:29:52;;;;;;;64.15;59.05;;;;;;;7.87;91.04;98033.06;5011930;28;20044;-73
2023/04/16 01:32:24;;;;;;;67.43;61.15;;;;;;;7.87;90.76;98027.72;5010542;28;20026;-73
2023/04/16 01:34:49;;;;;;;67.63;61.63;;;;;;;7.93;90.05;98032.16;4993914;28;20421;-74
2023/04/16 01:37:16;;;;;;;64.72;59.10;;;;;;;7.88;90.18;98024.00;5011955;28;20030;-74
2023/04/16 01:39:41;;;;;;;88.32;64.00;;;;;;;7.72;91.20;98035.38;4994473;28;20468;-74
2023/04/16 01:42:06;;;;;;;100.68;65.75;;;;;;;7.67;91.47;98027.22;5033443;28;20048;-75
2023/04/16 01:44:32;;;;;;;102.60;64.13;;;;;;;7.50;92.51;98020.88;4984138;28;20029;-74
2023/04/16 01:46:57;;;;;;;236.23;80.38;;;;;;;7.48;92.28;98022.97;5000539;28;20068;-74
2023/04/16 01:49:24;;;;;;;189.38;72.25;;;;;;;7.44;92.78;98027.16;5000776;28;20034;-73
2023/04/16 01:51:49;;;;;;;263.90;81.63;;;;;;;7.43;92.78;98028.19;5000507;28;20369;-73
2023/04/16 01:54:14;;;;;;;140.70;69.75;;;;;;;7.44;93.49;98029.84;5017928;28;20041;-73
2023/04/16 01:56:40;;;;;;;147.98;70.20;;;;;;;7.48;92.77;98028.31;5000366;28;20033;-73
2023/04/16 01:59:05;;;;;;;63.92;57.35;;;;;;;7.50;92.29;98027.06;5000617;28;20049;-73
2023/04/16 02:01:36;;;;;;;62.30;55.75;;;;;;;7.67;92.88;98027.22;4994777;28;20041;-73
2023/04/16 02:04:02;;;;;;;61.30;55.28;;;;;;;7.74;92.14;98027.94;4993898;28;20033;-73
2023/04/16 02:06:27;;;;;;;62.35;56.47;;;;;;;7.80;91.39;98016.28;5003686;28;20403;-72
2023/04/16 02:08:53;;;;;;;62.55;56.80;;;;;;;7.79;90.87;98029.91;5018044;28;20034;-73
2023/04/16 02:11:18;;;;;;;60.85;55.35;;;;;;;7.84;91.47;98028.16;4984204;28;20068;-73
2023/04/16 02:13:44;;;;;;;63.10;57.97;;;;;;;7.77;90.64;98014.03;4971372;28;20092;-72
2023/04/16 02:16:10;;;;;;;63.10;57.75;;;;;;;7.92;90.94;98030.53;5017788;28;20427;-72
2023/04/16 02:19:08;;;;;;;62.20;56.03;;;;;;;7.87;90.37;98027.72;5012734;28;20088;-72
2023/04/16 02:21:34;;;;;;;82.38;59.42;;;;;;;7.71;91.29;98025.69;5000486;28;20117;-72
2023/04/16 02:24:00;;;;;;;77.95;60.58;;;;;;;7.61;91.93;98025.44;5000185;28;20121;-72
2023/04/16 02:26:28;;;;;;;62.40;56.08;;;;;;;7.73;91.27;98037.00;5000594;28;20041;-72
2023/04/16 02:28:58;;;;;;;81.40;58.83;;;;;;;7.72;91.70;98030.03;5017815;28;20066;-72
2023/04/16 02:31:30;;;;;;;62.63;56.38;;;;;;;7.83;91.05;98039.13;5001178;28;20033;-72
2023/04/16 02:33:56;;;;;;;64.90;58.05;;;;;;;7.83;91.58;98031.91;5017568;28;20029;-73
2023/04/16 02:36:22;;;;;;;63.00;57.20;;;;;;;7.94;90.34;98044.50;4996996;28;20034;-72
2023/04/16 02:38:47;;;;;;;112.00;62.13;;;;;;;7.77;91.18;98042.75;5029768;28;20037;-73
2023/04/16 02:41:13;;;;;;;72.13;57.42;;;;;;;7.77;91.99;98043.53;5016655;28;20024;-73
2023/04/16 02:43:38;;;;;;;77.85;60.88;;;;;;;7.66;92.22;98036.28;5014671;28;20072;-74
2023/04/16 02:46:04;;;;;;;79.97;59.13;;;;;;;7.78;91.66;98034.47;5016367;28;20045;-74
2023/04/16 02:48:29;;;;;;;62.30;56.25;;;;;;;7.89;90.88;98030.97;5017712;28;20042;-74
2023/04/16 02:50:54;;;;;;;63.85;57.00;;;;;;;7.87;90.67;98033.06;4997463;28;20464;-74
2023/04/16 02:53:20;;;;;;;72.35;57.65;;;;;;;7.87;90.62;98035.75;5006976;28;20030;-73
2023/04/16 02:55:55;;;;;;;61.40;55.80;;;;;;;7.89;90.66;98036.34;4990066;28;20025;-73
2023/04/16 02:58:22;;;;;;;62.95;57.53;;;;;;;7.92;91.12;98025.16;5000985;28;20048;-74
2023/04/16 03:00:48;;;;;;;64.00;57.28;;;;;;;7.92;90.73;98035.88;4997104;28;20034;-74
2023/04/16 03:03:13;;;;;;;62.22;56.25;;;;;;;7.95;90.69;98024.69;4996778;28;20033;-74
2023/04/16 03:05:39;;;;;;;83.45;61.25;;;;;;;7.84;90.79;98032.72;4993976;28;20037;-74
2023/04/16 03:08:05;;;;;;;109.03;63.20;;;;;;;7.73;91.35;98037.00;5013194;28;20400;-75
2023/04/16 03:10:31;;;;;;;104.47;61.05;;;;;;;7.71;92.21;98044.47;4996870;28;20032;-75
2023/04/16 03:12:56;;;;;;;107.15;61.03;;;;;;;7.82;91.65;98049.03;4996614;28;20124;-74
2023/04/16 03:15:21;;;;;;;71.97;57.80;;;;;;;7.72;91.21;98040.75;5012969;28;20117;-75
2023/04/16 03:17:47;;;;;;;75.47;59.85;;;;;;;7.76;91.86;98035.72;4980513;28;20080;-74
2023/04/16 03:20:13;;;;;;;63.67;57.58;;;;;;;7.87;91.34;98043.78;4996491;28;20117;-73
2023/04/16 03:22:39;;;;;;;73.47;58.55;;;;;;;7.82;91.46;98035.63;4996649;28;20096;-74
2023/04/16 03:25:05;;;;;;;63.72;57.42;;;;;;;7.89;90.94;98052.41;4993095;28;20018;-73
2023/04/16 03:27:31;;;;;;;88.15;60.53;;;;;;;7.86;90.90;98044.84;4996442;28;20564;-73
2023/04/16 03:29:56;;;;;;;70.65;60.67;;;;;;;7.95;91.07;98048.84;4996466;28;20116;-74
2023/04/16 03:32:22;;;;;;;71.20;59.70;;;;;;;7.97;91.24;98054.78;4996411;28;20042;-74
2023/04/16 03:34:47;;;;;;;155.43;66.20;;;;;;;7.77;92.06;98054.25;5012387;28;20502;-74
2023/04/16 03:37:13;;;;;;;84.40;58.08;;;;;;;7.85;91.51;98055.78;4996223;28;20037;-74
2023/04/16 03:39:38;;;;;;;133.77;62.72;;;;;;;7.81;91.83;98060.81;4979842;28;20080;-73
2023/04/16 03:42:03;;;;;;;67.00;56.30;;;;;;;7.96;91.32;98063.84;4989980;28;20400;-73
2023/04/16 03:44:29;;;;;;;65.82;55.90;;;;;;;7.87;90.35;98059.88;5005637;28;20022;-73
2023/04/16 03:46:54;;;;;;;57.65;51.53;;;;;;;7.93;91.35;98058.97;5013703;28;20042;-73
2023/04/16 03:49:20;;;;;;;63.10;54.92;;;;;;;7.94;91.29;98068.63;4995916;28;20025;-72
2023/04/16 03:51:45;;;;;;;194.50;65.88;;;;;;;7.73;91.83;98063.81;4995795;28;20038;-73
2023/04/16 03:54:11;;;;;;;166.40;63.95;;;;;;;7.66;93.12;98069.28;5013276;28;20026;-72
2023/04/16 03:56:39;;;;;;;67.18;53.95;;;;;;;7.84;91.67;98062.22;5012132;28;20503;-73
2023/04/16 03:59:04;;;;;;;115.68;56.35;;;;;;;7.72;92.34;98062.19;4995933;28;20025;-73
2023/04/16 04:01:30;;;;;;;168.63;60.03;;;;;;;7.61;92.58;98060.28;4995632;28;20038;-73
2023/04/16 04:03:55;;;;;;;79.47;52.65;;;;;;;7.80;91.88;98071.75;4995438;28;20495;-73
2023/04/16 04:06:20;;;;;;;143.82;56.60;;;;;;;7.53;92.66;98068.66;4995507;28;20038;-73
2023/04/16 04:08:46;;;;;;;69.88;51.15;;;;;;;7.64;93.11;98065.19;5021398;28;20026;-73
2023/04/16 04:11:13;;;;;;;80.22;51.88;;;;;;;7.74;92.93;98080.72;4995744;28;20029;-73
2023/04/16 04:13:40;;;;;;;58.67;52.00;;;;;;;7.87;92.32;98083.19;4995664;28;20022;-73
2023/04/16 04:16:06;;;;;;;57.70;51.88;;;;;;;7.86;90.47;98085.06;4995531;28;20041;-73
2023/04/16 04:18:32;;;;;;;62.45;49.65;;;;;;;7.82;91.29;98078.50;5011741;28;20033;-73
2023/04/16 04:20:58;;;;;;;80.00;50.53;;;;;;;7.77;92.30;98081.06;4995558;28;20084;-73
2023/04/16 04:23:27;;;;;;;69.05;48.42;;;;;;;7.65;92.13;98080.22;5011490;28;20116;-73
2023/04/16 04:25:52;;;;;;;80.57;49.80;;;;;;;7.69;91.43;98084.09;5012891;28;20112;-73
2023/04/16 04:28:18;;;;;;;53.00;47.53;;;;;;;7.75;92.04;98077.78;4991926;28;20030;-73
2023/04/16 04:30:43;;;;;;;72.93;53.70;;;;;;;7.70;91.92;98080.38;5024965;28;20036;-73
2023/04/16 04:33:09;;;;;;;55.67;51.15;;;;;;;7.88;90.82;98076.78;4994860;28;20091;-73
2023/04/16 04:35:36;;;;;;;67.93;50.20;;;;;;;7.80;91.81;98087.81;5008009;28;20419;-74
2023/04/16 04:38:02;;;;;;;59.35;49.78;;;;;;;7.78;91.49;98090.75;4995161;28;20022;-74
2023/04/16 04:40:27;;;;;;;62.33;49.05;;;;;;;7.63;92.43;98087.69;5011383;28;20087;-73
2023/04/16 04:42:53;;;;;;;64.47;47.33;;;;;;;7.49;92.76;98102.31;5011376;28;20026;-73
2023/04/16 04:45:24;;;;;;;59.65;48.25;;;;;;;7.60;92.51;98096.19;5001368;28;20025;-74
2023/04/16 04:47:51;;;;;;;64.88;47.10;;;;;;;7.57;92.46;98099.31;4995575;28;20036;-73
2023/04/16 04:50:17;;;;;;;59.55;46.10;;;;;;;7.58;92.65;98104.41;4994920;28;20030;-72
2023/04/16 04:52:42;;;;;;;59.58;47.25;;;;;;;7.61;92.47;98108.50;4994763;28;20034;-72
2023/04/16 04:55:08;;;;;;;51.08;45.58;;;;;;;7.69;93.07;98108.22;5010848;28;20030;-72
2023/04/16 04:57:34;;;;;;;51.08;45.47;;;;;;;7.80;92.04;98104.72;5010682;28;20034;-71
2023/04/16 05:00:03;;;;;;;63.83;46.70;;;;;;;7.70;91.20;98107.19;4993234;28;21175;-73
2023/04/16 05:02:35;;;;;;;52.50;47.15;;;;;;;7.77;91.68;98115.13;4990178;28;20058;-73
2023/04/16 05:05:01;;;;;;;49.67;45.40;;;;;;;7.89;90.98;98113.28;5010505;28;20139;-73
2023/04/16 05:07:26;;;;;;;53.35;46.20;;;;;;;7.87;91.36;98116.19;5011050;28;20036;-72
2023/04/16 05:09:52;;;;;;;53.72;45.28;;;;;;;7.66;92.29;98116.69;5010934;28;20531;-73
2023/04/16 05:12:17;;;;;;;51.53;46.42;;;;;;;7.72;92.85;98125.69;4994583;28;20032;-72
2023/04/16 05:14:43;;;;;;;52.88;48.08;;;;;;;7.80;92.77;98123.50;4993467;28;20137;-72
2023/04/16 05:17:09;;;;;;;65.53;54.85;;;;;;;7.79;91.74;98121.88;5049226;23;20034;-76
2023/04/16 05:19:35;;;;;;;58.47;53.15;;;;;;;7.96;90.87;98122.06;5018848;28;20037;-78
2023/04/16 05:22:01;;;;;;;61.22;55.92;;;;;;;7.89;91.77;98127.50;5034477;28;20037;-78
2023/04/16 05:24:27;;;;;;;56.60;52.03;;;;;;;7.90;90.81;98129.13;5026141;28;20104;-78
2023/04/16 05:26:52;;;;;;;55.17;49.90;;;;;;;7.80;90.79;98128.03;5041576;28;20235;-78
2023/04/16 05:29:17;;;;;;;53.35;47.58;;;;;;;7.75;91.19;98125.25;5029191;28;20030;-77
2023/04/16 05:31:43;;;;;;;48.70;44.67;;;;;;;7.76;91.56;98127.69;5047810;28;20021;-77
2023/04/16 05:34:08;;;;;;;52.50;47.78;;;;;;;7.78;91.35;98125.59;5041253;28;20124;-78
2023/04/16 05:36:34;;;;;;;53.13;48.30;;;;;;;7.78;91.14;98133.63;5024906;28;20087;-77
2023/04/16 05:39:00;;;;;;;52.95;47.53;;;;;;;7.84;91.71;98127.34;5042888;28;20037;-78
2023/04/16 05:41:25;;;;;;;51.97;47.58;;;;;;;7.75;91.70;98134.09;5038989;28;20486;-78
2023/04/16 05:43:51;;;;;;;57.83;48.50;;;;;;;7.71;92.49;98140.97;5037271;28;20087;-78
2023/04/16 05:46:16;;;;;;;50.63;46.33;;;;;;;7.73;91.78;98138.84;5034910;28;20033;-77
2023/04/16 05:48:41;;;;;;;50.17;45.88;;;;;;;7.82;91.67;98148.22;5026569;28;20408;-78
2023/04/16 05:51:07;;;;;;;49.90;46.00;;;;;;;7.93;91.24;98143.94;5039989;28;20044;-78
2023/04/16 05:53:32;;;;;;;48.10;44.28;;;;;;;7.81;91.09;98143.09;5035565;28;20084;-77
2023/04/16 05:55:57;;;;;;;48.25;44.58;;;;;;;7.95;91.43;98163.31;5030853;28;20382;-78
2023/04/16 05:58:23;;;;;;;50.45;46.25;;;;;;;7.90;91.19;98155.94;5033448;28;20041;-78
2023/04/16 06:00:48;;;;;;;51.03;46.30;;;;;;;7.77;91.05;98156.13;5030581;28;20033;-78
2023/04/16 06:03:14;;;;;;;54.47;49.70;;;;;;;7.71;92.27;98162.41;5034606;28;20037;-78
2023/04/16 06:05:39;;;;;;;53.97;48.75;;;;;;;7.79;91.71;98164.78;5047146;28;20033;-77
2023/04/16 06:08:05;;;;;;;57.45;51.63;;;;;;;7.77;91.47;98172.19;5023648;28;20048;-77
2023/04/16 06:10:30;;;;;;;50.83;46.60;;;;;;;7.81;92.17;98167.22;5030852;28;20100;-78
2023/04/16 06:12:55;;;;;;;50.08;46.47;;;;;;;7.88;92.43;98174.13;5005663;28;20675;-77
2023/04/16 06:15:21;;;;;;;50.72;47.05;;;;;;;7.93;91.76;98168.91;5038307;28;20549;-77
2023/04/16 06:17:46;;;;;;;47.95;44.58;;;;;;;7.92;91.35;98172.63;5045213;28;20040;-77
2023/04/16 06:20:12;;;;;;;46.70;43.33;;;;;;;7.98;91.28;98177.06;5027492;28;20122;-74
2023/04/16 06:22:37;;;;;;;47.50;43.72;;;;;;;7.98;91.68;98184.31;5044970;28;20426;-77
2023/04/16 06:25:03;;;;;;;45.17;42.15;;;;;;;8.08;91.65;98184.56;5016530;28;20398;-77
2023/04/16 06:27:29;;;;;;;43.35;40.75;;;;;;;7.90;92.34;98185.44;5032529;28;20042;-77
2023/04/16 06:29:56;;;;;;;41.08;38.80;;;;;;;7.97;91.64;98183.50;5048890;28;20024;-78
2023/04/16 06:32:21;;;;;;;42.35;40.25;;;;;;;7.97;91.14;98191.53;5037256;28;20473;-77
2023/04/16 06:34:46;;;;;;;40.65;38.67;;;;;;;8.04;91.31;98194.13;5043088;28;20021;-78
2023/04/16 06:37:12;;;;;;;40.00;38.10;;;;;;;8.05;91.43;98195.75;5027528;28;20109;-78
2023/04/16 06:39:37;;;;;;;41.58;39.60;;;;;;;8.09;90.34;98195.06;5047963;28;20498;-78
2023/04/16 06:42:03;;;;;;;39.70;37.80;;;;;;;8.15;90.60;98196.00;5052665;28;20543;-78
2023/04/16 06:44:28;;;;;;;39.03;37.28;;;;;;;8.13;90.73;98196.25;5005105;28;20089;-78
2023/04/16 06:46:54;;;;;;;40.67;38.60;;;;;;;8.21;90.77;98214.69;5009679;28;20124;-78
2023/04/16 06:49:20;;;;;;;40.60;38.60;;;;;;;8.11;90.02;98209.06;5033912;28;20033;-78
2023/04/16 06:51:45;;;;;;;35.50;33.70;;;;;;;8.19;90.42;98213.31;5049508;28;20080;-77
2023/04/16 06:54:11;;;;;;;36.20;34.60;;;;;;;8.28;89.44;98207.38;5015090;28;20053;-78
2023/04/16 06:56:36;;;;;;;36.03;34.42;;;;;;;8.16;89.62;98228.00;5048252;28;20044;-78
2023/04/16 06:59:02;;;;;;;37.13;35.63;;;;;;;8.27;89.62;98221.88;5031752;28;20029;-77
2023/04/16 07:01:29;;;;;;;36.85;35.25;;;;;;;8.25;88.79;98218.56;5041119;28;20064;-77
2023/04/16 07:03:55;;;;;;;37.95;36.35;;;;;;;8.31;88.94;98228.41;5040019;28;20021;-77
2023/04/16 07:06:21;;;;;;;36.88;35.38;;;;;;;8.31;89.76;98223.03;5047132;28;20071;-77
2023/04/16 07:08:46;;;;;;;38.35;36.63;;;;;;;8.37;89.46;98223.16;5030204;28;20025;-77
2023/04/16 07:11:11;;;;;;;37.60;35.90;;;;;;;8.42;89.10;98223.31;5039939;28;20056;-78
2023/04/16 07:13:37;;;;;;;42.63;40.63;;;;;;;8.45;88.99;98228.22;5041201;28;20117;-78
2023/04/16 07:16:02;;;;;;;44.92;42.75;;;;;;;8.51;89.10;98221.91;5023610;28;20040;-78
2023/04/16 07:18:28;;;;;;;43.17;41.25;;;;;;;8.46;89.88;98232.53;5040284;28;20410;-76
2023/04/16 07:20:53;;;;;;;42.05;40.25;;;;;;;8.51;89.07;98227.28;5047300;28;20066;-78
2023/04/16 07:23:18;;;;;;;41.03;39.22;;;;;;;8.56;88.88;98235.47;5020300;28;20024;-77
2023/04/16 07:25:44;;;;;;;39.78;38.08;;;;;;;8.55;88.77;98239.19;5023340;28;20363;-78
2023/04/16 07:28:09;;;;;;;41.58;39.65;;;;;;;8.65;89.05;98237.59;5040948;28;20537;-77
2023/04/16 07:30:35;;;;;;;42.00;40.20;;;;;;;8.64;88.59;98237.81;5030465;28;20464;-77
2023/04/16 07:33:03;;;;;;;42.30;40.50;;;;;;;8.46;88.95;98240.56;5045194;28;20059;-77
2023/04/16 07:35:29;;;;;;;44.08;42.08;;;;;;;8.68;89.21;98244.38;5040596;28;20028;-78
2023/04/16 07:37:55;;;;;;;44.47;42.58;;;;;;;8.67;88.87;98245.41;5034074;28;20045;-78
2023/04/16 07:40:20;;;;;;;42.20;40.40;;;;;;;8.73;88.84;98237.25;5025534;28;20072;-73
2023/04/16 07:42:46;;;;;;;42.30;40.40;;;;;;;8.74;88.05;98243.44;5042838;28;20024;-75
2023/04/16 07:45:11;;;;;;;39.45;37.67;;;;;;;8.60;89.00;98250.06;5042380;28;20494;-78
2023/04/16 07:47:37;;;;;;;40.90;39.17;;;;;;;8.75;88.78;98251.25;5011701;28;20509;-77
2023/04/16 07:50:02;;;;;;;42.30;40.50;;;;;;;8.91;88.92;98250.56;5022868;28;20041;-77
2023/04/16 07:52:28;;;;;;;43.15;41.15;;;;;;;8.94;88.45;98251.97;5024963;28;20030;-77
2023/04/16 07:54:53;;;;;;;41.40;39.70;;;;;;;8.93;87.57;98243.13;5047551;28;20060;-77
2023/04/16 07:57:19;;;;;;;40.17;38.58;;;;;;;9.13;86.95;98256.19;5025295;28;20025;-77
2023/04/16 07:59:44;;;;;;;42.00;40.10;;;;;;;8.99;87.47;98242.16;5028387;28;20094;-76
2023/04/16 08:02:15;;;;;;;41.22;39.42;;;;;;;9.15;87.29;98246.03;5048880;28;20032;-77
2023/04/16 08:04:41;;;;;;;43.88;42.10;;;;;;;9.08;86.53;98256.06;5019920;28;20029;-77
2023/04/16 08:07:07;;;;;;;43.60;41.67;;;;;;;9.13;86.29;98258.06;5021001;28;20029;-77
2023/04/16 08:09:33;;;;;;;43.97;41.90;;;;;;;8.93;87.21;98261.91;5019657;28;20099;-77
2023/04/16 08:11:59;;;;;;;45.20;43.10;;;;;;;8.72;86.78;98267.00;5050485;28;20028;-77
2023/04/16 08:14:24;;;;;;;45.20;43.35;;;;;;;9.18;86.55;98266.22;5036938;28;20032;-77
2023/04/16 08:16:50;;;;;;;44.83;42.83;;;;;;;9.18;86.00;98264.38;5023194;28;20060;-77
2023/04/16 08:19:15;;;;;;;45.17;43.28;;;;;;;9.01;87.39;98263.41;5028599;28;20037;-77
2023/04/16 08:21:41;;;;;;;45.30;43.33;;;;;;;8.72;87.14;98280.44;5034967;28;20029;-77
2023/04/16 08:24:06;;;;;;;46.13;44.13;;;;;;;9.08;86.47;98271.38;5038210;28;20394;-77
2023/04/16 08:26:32;;;;;;;50.97;48.78;;;;;;;9.07;87.01;98270.56;5040674;28;20025;-77
2023/04/16 08:28:57;;;;;;;47.08;45.05;;;;;;;8.83;87.10;98285.00;5045504;28;20033;-77
2023/04/16 08:31:22;;;;;;;48.70;46.60;;;;;;;8.80;86.65;98286.28;5044682;28;20389;-77
2023/04/16 08:33:48;;;;;;;48.85;46.78;;;;;;;8.95;86.38;98286.69;5048265;28;20083;-77
2023/04/16 08:36:13;;;;;;;47.85;45.67;;;;;;;8.93;86.59;98290.63;5043364;28;20028;-77
2023/04/16 08:38:38;;;;;;;44.80;43.00;;;;;;;8.73;87.48;98290.13;5021775;28;20041;-77
2023/04/16 08:41:06;;;;;;;49.67;47.40;;;;;;;9.00;86.80;98292.16;5040772;28;20095;-77
2023/04/16 08:43:36;;;;;;;47.13;45.15;;;;;;;8.96;86.68;98300.94;5018989;28;20040;-77
2023/04/16 08:46:03;;;;;;;47.30;45.30;;;;;;;9.44;84.97;98298.84;5035575;28;20080;-77
2023/04/16 08:48:32;;;;;;;49.85;47.65;;;;;;;9.64;85.18;98299.28;5023961;28;20036;-77
2023/04/16 08:50:59;;;;;;;47.50;45.53;;;;;;;9.69;85.14;98306.63;5037986;28;20487;-77
2023/04/16 08:53:29;;;;;;;46.67;44.58;;;;;;;9.68;84.75;98308.50;4992193;28;20029;-77
2023/04/16 08:55:59;;;;;;;46.88;44.88;;;;;;;9.21;87.12;98309.59;5001865;28;20168;-77
2023/04/16 08:58:28;;;;;;;49.22;47.03;;;;;;;9.32;87.11;98314.16;5014755;28;20716;-77
2023/04/16 09:00:54;;;;;;;49.45;47.35;;;;;;;9.22;87.35;98321.97;5027859;28;20037;-77
2023/04/16 09:03:20;;;;;;;49.90;47.78;;;;;;;9.41;87.08;98315.44;5039710;28;20363;-77
2023/04/16 09:05:47;;;;;;;46.78;44.78;;;;;;;9.48;84.01;98320.69;5021076;28;20072;-77
2023/04/16 09:08:12;;;;;;;43.25;41.45;;;;;;;9.93;83.37;98312.81;5042100;28;20021;-77
2023/04/16 09:10:38;;;;;;;43.67;41.67;;;;;;;10.21;82.96;98319.09;5027705;28;20390;-77
2023/04/16 09:13:03;;;;;;;43.97;42.10;;;;;;;9.97;83.96;98328.22;5039620;28;20474;-77
2023/04/16 09:15:28;;;;;;;40.63;38.83;;;;;;;9.72;83.53;98323.13;5018287;28;20497;-77
2023/04/16 09:17:55;;;;;;;42.42;40.67;;;;;;;9.79;84.49;98324.88;5042037;28;20036;-77
2023/04/16 09:20:21;;;;;;;45.17;43.38;;;;;;;9.62;85.16;98332.84;5048632;28;20037;-77
2023/04/16 09:22:47;;;;;;;44.22;42.45;;;;;;;9.75;84.30;98344.16;5039480;28;20051;-77
2023/04/16 09:25:12;;;;;;;47.72;45.63;;;;;;;9.83;84.77;98344.84;5020763;28;20497;-77
2023/04/16 09:27:38;;;;;;;39.65;38.05;;;;;;;9.57;85.09;98346.97;5041799;28;20029;-77
2023/04/16 09:30:20;;;;;;;44.05;42.17;;;;;;;9.95;84.90;98349.19;5027711;28;20124;-77
2023/04/16 09:32:46;;;;;;;39.00;37.38;;;;;;;10.19;82.18;98349.97;5041720;28;20124;-77
2023/04/16 09:35:11;;;;;;;41.47;39.67;;;;;;;10.46;82.79;98355.63;5029776;28;20104;-77
2023/04/16 09:37:37;;;;;;;36.25;34.65;;;;;;;9.97;84.15;98351.63;5008126;28;20033;-77
2023/04/16 09:40:03;;;;;;;32.70;31.30;;;;;;;9.90;82.67;98361.69;5038363;28;20142;-77
2023/04/16 09:42:31;;;;;;;36.60;35.00;;;;;;;10.22;82.29;98354.91;5041093;28;20483;-77
2023/04/16 09:44:57;;;;;;;30.77;29.27;;;;;;;10.62;81.19;98354.88;5008722;28;20028;-77
2023/04/16 09:47:24;;;;;;;34.25;32.85;;;;;;;10.22;81.92;98360.28;5040749;28;20031;-77
2023/04/16 09:49:50;;;;;;;36.55;34.97;;;;;;;10.25;83.36;98359.78;5033740;28;20057;-77
2023/04/16 09:52:18;;;;;;;35.95;34.25;;;;;;;10.15;81.07;98360.38;5033792;28;20068;-77
2023/04/16 09:54:51;;;;;;;35.60;34.10;;;;;;;10.29;81.81;98360.97;5020386;28;20028;-77
2023/04/16 09:57:21;;;;;;;36.05;34.45;;;;;;;10.42;82.96;98366.06;5038144;28;20044;-77
2023/04/16 09:59:48;;;;;;;35.03;33.42;;;;;;;10.21;82.58;98364.00;5043915;28;20061;-77
2023/04/16 10:02:13;;;;;;;28.27;26.95;;;;;;;10.62;81.17;98361.06;5047056;28;20035;-77
2023/04/16 10:04:51;;;;;;;33.03;31.55;;;;;;;10.55;82.98;98357.69;5041990;28;20033;-77
2023/04/16 10:07:17;;;;;;;39.40;37.60;;;;;;;10.64;83.07;98358.94;5039996;28;20041;-77
2023/04/16 10:09:43;;;;;;;34.92;33.50;;;;;;;10.43;82.34;98361.50;5041828;28;20021;-77
2023/04/16 10:12:09;;;;;;;33.65;32.25;;;;;;;10.36;82.81;98367.81;5041864;28;20172;-77
2023/04/16 10:14:34;;;;;;;36.63;34.97;;;;;;;10.42;82.89;98371.44;5030311;28;20063;-77
2023/04/16 10:17:00;;;;;;;37.33;35.72;;;;;;;10.29;83.23;98371.72;5030832;28;20043;-77
2023/04/16 10:19:30;;;;;;;36.17;34.60;;;;;;;10.24;83.35;98372.44;5024956;28;20025;-78
2023/04/16 10:21:56;;;;;;;31.92;30.52;;;;;;;10.30;81.54;98378.72;5041328;28;20467;-77
2023/04/16 10:24:22;;;;;;;32.53;31.13;;;;;;;10.25;82.15;98374.06;5024588;28;20017;-77
2023/04/16 10:26:48;;;;;;;32.13;30.75;;;;;;;10.11;83.01;98379.91;5021704;28;20121;-77
2023/04/16 10:29:14;;;;;;;38.42;36.88;;;;;;;10.00;84.13;98380.75;5026857;28;20033;-77
2023/04/16 10:31:40;;;;;;;40.00;38.40;;;;;;;9.81;84.05;98380.06;4982929;28;20030;-77
2023/04/16 10:34:08;;;;;;;43.00;41.25;;;;;;;9.70;84.16;98387.09;5045940;28;20026;-77
2023/04/16 10:36:36;;;;;;;43.53;41.72;;;;;;;9.80;84.40;98391.06;5035982;28;20037;-77
2023/04/16 10:39:02;;;;;;;46.25;44.35;;;;;;;9.67;84.98;98400.19;5025593;28;20021;-77
2023/04/16 10:41:27;;;;;;;46.58;44.67;;;;;;;9.68;84.82;98397.25;5024053;28;20384;-77
2023/04/16 10:44:04;;;;;;;49.65;47.63;;;;;;;9.74;84.94;98390.94;5030727;28;20034;-77
2023/04/16 10:46:32;;;;;;;47.60;45.55;;;;;;;9.80;84.95;98385.69;5037339;28;20033;-77
2023/04/16 10:49:01;;;;;;;48.83;46.83;;;;;;;9.76;85.71;98393.41;5045763;28;20078;-77
2023/04/16 10:51:30;;;;;;;49.60;47.45;;;;;;;9.91;85.15;98390.25;5054964;28;20040;-77
2023/04/16 10:54:13;;;;;;;49.10;47.05;;;;;;;9.66;85.75;98393.97;5051633;28;20109;-77
2023/04/16 10:56:38;;;;;;;51.78;49.47;;;;;;;9.84;86.12;98401.13;5047007;28;20487;-77
2023/04/16 10:59:05;;;;;;;51.47;49.17;;;;;;;9.74;86.26;98396.31;5030223;28;20111;-77
2023/04/16 11:01:35;;;;;;;51.13;48.95;;;;;;;10.15;86.49;98403.44;5040314;28;20033;-77
2023/04/16 11:04:23;;;;;;;51.17;48.88;;;;;;;10.13;85.92;98396.66;5039758;28;20040;-77
2023/04/16 11:07:15;;;;;;;52.65;50.38;;;;;;;10.22;85.92;98403.34;5044226;28;20617;-77
2023/04/16 11:09:53;;;;;;;53.20;50.88;;;;;;;10.32;86.52;98400.84;5040267;28;20044;-77
2023/04/16 11:12:21;;;;;;;53.13;50.75;;;;;;;10.39;85.94;98404.22;5038817;28;20092;-77
2023/04/16 11:14:51;;;;;;;50.78;48.70;;;;;;;10.51;84.57;98399.63;5044150;28;20028;-77
2023/04/16 11:17:17;;;;;;;53.17;50.88;;;;;;;10.27;85.66;98398.03;5044256;22;20125;-76
2023/04/16 11:19:42;;;;;;;54.83;52.42;;;;;;;10.07;86.16;98409.19;5014238;28;20048;-76
2023/04/16 11:22:11;;;;;;;55.88;53.45;;;;;;;10.15;85.38;98400.75;5017125;28;20065;-77